Time;durP1;ratioP1;P1;durP2;ratioP2;P2;SDS_P1;SDS_P2;PMS_P1;PMS_P2;Temp;Humidity;BMP_temperature;BMP_pressure;BME280_temperature;BME280_humidity;BME280_pressure;Samples;Min_cycle;Max_cycle;Signal;HPM_P1;HPM_P2
2022/04/29 00:00:07;;;;;;;;;21.75;21.75;;;;;18.31;40.52;102246.34;5061179;28;45260;-65
2022/04/29 00:02:33;;;;;;;;;26.00;22.50;;;;;18.30;40.55;102247.25;5062434;28;45264;-65
2022/04/29 00:04:58;;;;;;;;;18.75;18.50;;;;;18.27;41.09;102246.50;5073119;28;45343;-65
2022/04/29 00:07:23;;;;;;;;;20.25;18.50;;;;;18.26;41.00;102250.16;5065026;28;45322;-65
2022/04/29 00:09:49;;;;;;;;;23.75;23.50;;;;;18.25;40.54;102248.41;5063292;28;45314;-65
2022/04/29 00:12:14;;;;;;;;;22.50;22.50;;;;;18.21;41.07;102244.94;5081487;28;45397;-65
2022/04/29 00:14:40;;;;;;;;;22.75;22.50;;;;;18.23;40.75;102247.59;5065410;28;45842;-65
2022/04/29 00:17:05;;;;;;;;;23.50;19.75;;;;;18.21;40.88;102249.47;5061097;28;45413;-65
2022/04/29 00:19:32;;;;;;;;;23.25;21.75;;;;;18.18;40.70;102238.78;5061349;28;45299;-65
2022/04/29 00:21:58;;;;;;;;;22.00;18.50;;;;;18.16;41.19;102238.84;5063030;28;45517;-65
2022/04/29 00:24:23;;;;;;;;;29.25;27.00;;;;;18.15;40.88;102240.66;5080901;28;46018;-65
2022/04/29 00:26:49;;;;;;;;;26.00;23.00;;;;;18.09;41.21;102232.81;5076285;28;45277;-65
2022/04/29 00:29:15;;;;;;;;;24.00;23.25;;;;;18.04;41.26;102221.31;5063149;28;45322;-65
2022/04/29 00:31:41;;;;;;;;;21.00;21.00;;;;;18.06;41.56;102227.53;5078822;28;45246;-65
2022/04/29 00:34:06;;;;;;;;;23.75;23.00;;;;;18.00;41.02;102222.38;5063871;28;45222;-65
2022/04/29 00:36:32;;;;;;;;;26.50;24.75;;;;;17.96;41.53;102215.34;5060783;28;45425;-65
2022/04/29 00:38:58;;;;;;;;;22.75;22.75;;;;;17.92;41.35;102213.69;5060912;28;45203;-65
2022/04/29 00:41:24;;;;;;;;;26.50;25.50;;;;;17.93;41.79;102224.44;5079491;28;45560;-65
2022/04/29 00:44:18;;;;;;;;;23.25;20.50;;;;;17.91;41.27;102210.13;5080870;28;46008;-65
2022/04/29 00:46:46;;;;;;;;;24.25;21.00;;;;;17.92;41.65;102214.56;5070562;28;45322;-65
2022/04/29 00:49:13;;;;;;;;;27.75;25.25;;;;;17.92;41.55;102217.25;5087740;27;45370;-65
2022/04/29 00:51:41;;;;;;;;;22.00;19.50;;;;;17.85;41.14;102204.03;5060409;28;45299;-65
2022/04/29 00:54:09;;;;;;;;;25.75;23.50;;;;;17.81;41.49;102206.00;5060591;28;45200;-65
2022/04/29 00:56:38;;;;;;;;;21.75;21.75;;;;;17.80;41.75;102206.06;5064958;28;45327;-65
2022/04/29 00:59:15;;;;;;;;;23.25;22.00;;;;;17.78;41.72;102203.41;5068255;28;45296;-65
2022/04/29 01:01:44;;;;;;;;;32.75;29.50;;;;;17.83;41.67;102214.03;5060442;28;45480;-65
2022/04/29 01:04:12;;;;;;;;;21.75;21.00;;;;;17.78;42.31;102208.81;5065154;28;46199;-65
2022/04/29 01:06:38;;;;;;;;;27.50;24.25;;;;;17.75;42.05;102212.50;5073062;28;45315;-65
2022/04/29 01:09:03;;;;;;;;;27.00;25.75;;;;;17.63;42.19;102180.59;5069222;28;45281;-65
2022/04/29 01:11:28;;;;;;;;;27.25;26.50;;;;;17.67;42.09;102197.53;5065053;28;45167;-65
2022/04/29 01:13:54;;;;;;;;;27.00;24.75;;;;;17.67;42.20;102190.31;5060168;28;45281;-65
2022/04/29 01:16:20;;;;;;;;;25.25;24.75;;;;;17.64;42.35;102187.75;5059428;28;45438;-65
2022/04/29 01:18:49;;;;;;;;;29.50;26.50;;;;;17.62;42.43;102186.91;5060325;28;45313;-65
2022/04/29 01:21:15;;;;;;;;;25.00;24.75;;;;;17.65;42.49;102189.50;5059626;28;45469;-65
2022/04/29 01:23:41;;;;;;;;;30.50;29.00;;;;;17.60;42.24;102175.28;5070112;28;45568;-65
2022/04/29 01:26:09;;;;;;;;;26.00;26.00;;;;;17.59;42.15;102187.94;5062731;27;45406;-65
2022/04/29 01:28:35;;;;;;;;;35.00;28.25;;;;;17.53;42.38;102173.78;5072432;28;45484;-65
2022/04/29 01:31:03;;;;;;;;;29.50;28.50;;;;;17.52;42.49;102174.72;5076712;28;45322;-65
2022/04/29 01:33:30;;;;;;;;;28.00;28.00;;;;;17.51;42.32;102178.38;5071807;28;46995;-65
2022/04/29 01:35:55;;;;;;;;;32.00;29.25;;;;;17.46;42.68;102172.25;5060742;28;45420;-65
2022/04/29 01:38:22;;;;;;;;;35.00;28.75;;;;;17.38;42.68;102189.63;5072469;28;45332;-65
2022/04/29 01:40:47;;;;;;;;;25.75;25.25;;;;;17.39;42.43;102186.00;5059097;28;45327;-65
2022/04/29 01:43:12;;;;;;;;;28.75;27.25;;;;;17.35;42.62;102173.53;5059673;28;46136;-65
2022/04/29 01:45:38;;;;;;;;;30.50;28.50;;;;;17.37;42.99;102179.78;5061924;28;45299;-65
2022/04/29 01:48:04;;;;;;;;;28.25;26.25;;;;;17.35;42.85;102178.94;5069994;28;45296;-65
2022/04/29 01:50:29;;;;;;;;;27.25;25.00;;;;;17.34;42.47;102184.38;5075301;28;46648;-65
2022/04/29 01:52:54;;;;;;;;;31.00;28.25;;;;;17.31;42.78;102184.53;5059509;28;46378;-66
2022/04/29 01:55:20;;;;;;;;;33.50;29.75;;;;;17.30;42.81;102178.22;5074967;28;45247;-65
2022/04/29 01:57:49;;;;;;;;;25.25;23.50;;;;;17.29;42.51;102176.50;5071459;28;45157;-65
2022/04/29 02:00:15;;;;;;;;;33.50;29.00;;;;;17.31;43.13;102188.09;5059198;28;45441;-65
2022/04/29 02:02:40;;;;;;;;;30.50;29.50;;;;;17.31;42.71;102177.31;5059487;28;45658;-65
2022/04/29 02:05:06;;;;;;;;;29.75;28.00;;;;;17.28;43.07;102174.72;5064181;28;45283;-65
2022/04/29 02:07:31;;;;;;;;;33.25;29.00;;;;;17.28;42.95;102179.25;5073776;28;45426;-65
2022/04/29 02:09:56;;;;;;;;;29.25;28.25;;;;;17.29;42.81;102183.69;5059628;28;45449;-65
2022/04/29 02:12:22;;;;;;;;;32.50;30.00;;;;;17.26;42.72;102183.78;5059254;28;45394;-65
2022/04/29 02:14:47;;;;;;;;;32.50;30.75;;;;;17.27;42.90;102185.56;5059204;28;45307;-66
2022/04/29 02:17:13;;;;;;;;;32.25;31.00;;;;;17.27;42.89;102190.97;5063680;28;45360;-65
2022/04/29 02:19:39;;;;;;;;;28.50;28.00;;;;;17.25;42.99;102199.13;5074282;28;45554;-65
2022/04/29 02:22:06;;;;;;;;;32.75;31.25;;;;;17.26;42.96;102189.19;5064499;28;45303;-65
2022/04/29 02:24:34;;;;;;;;;29.50;28.00;;;;;17.23;43.16;102187.50;5073976;28;45467;-65
2022/04/29 02:27:02;;;;;;;;;34.50;30.00;;;;;17.20;43.08;102191.19;5075580;28;45250;-65
2022/04/29 02:29:28;;;;;;;;;28.25;26.75;;;;;17.15;43.05;102189.59;5063109;28;45564;-65
2022/04/29 02:31:53;;;;;;;;;34.00;30.75;;;;;17.07;43.18;102191.72;5081917;28;45232;-65
2022/04/29 02:34:19;;;;;;;;;25.00;24.00;;;;;17.05;43.07;102194.47;5062712;28;45350;-66
2022/04/29 02:36:45;;;;;;;;;33.25;30.00;;;;;17.02;43.29;102197.25;5062357;28;45275;-65
2022/04/29 02:39:10;;;;;;;;;30.00;27.00;;;;;17.00;43.24;102199.13;5062486;28;45425;-65
2022/04/29 02:41:37;;;;;;;;;29.75;27.25;;;;;17.03;43.38;102197.22;5062518;28;46202;-65
2022/04/29 02:44:03;;;;;;;;;34.50;29.50;;;;;16.99;43.34;102198.28;5062219;28;45630;-65
2022/04/29 02:46:28;;;;;;;;;31.75;30.25;;;;;16.94;43.44;102208.34;5070871;28;45491;-65
2022/04/29 02:48:53;;;;;;;;;29.75;28.25;;;;;16.91;43.21;102197.66;5066755;28;45272;-65
2022/04/29 02:51:19;;;;;;;;;30.50;29.00;;;;;16.82;43.52;102189.84;5075709;28;47061;-65
2022/04/29 02:53:44;;;;;;;;;28.50;27.75;;;;;16.91;43.43;102205.75;5062374;28;45332;-65
2022/04/29 02:56:09;;;;;;;;;33.00;28.50;;;;;16.90;43.50;102193.19;5062372;28;45683;-65
2022/04/29 02:58:35;;;;;;;;;29.00;28.50;;;;;16.89;43.46;102201.34;5075299;28;45373;-66
2022/04/29 03:01:01;;;;;;;;;30.50;28.50;;;;;16.83;43.23;102184.41;5069985;28;45315;-65
2022/04/29 03:03:28;;;;;;;;;35.25;32.00;;;;;16.81;43.53;102188.97;5073778;28;45483;-65
2022/04/29 03:05:53;;;;;;;;;32.50;30.00;;;;;16.81;43.73;102193.50;5070731;28;45479;-65
2022/04/29 03:08:19;;;;;;;;;31.25;26.75;;;;;16.78;43.54;102182.81;5066592;28;45302;-65
2022/04/29 03:10:46;;;;;;;;;33.00;30.00;;;;;16.81;43.72;102197.06;5065702;28;46406;-66
2022/04/29 03:13:12;;;;;;;;;32.75;29.00;;;;;16.72;43.25;102183.03;5061871;28;45507;-65
2022/04/29 03:15:37;;;;;;;;;29.00;28.00;;;;;16.75;43.60;102197.28;5075333;28;45261;-65
2022/04/29 03:18:18;;;;;;;;;34.00;30.50;;;;;16.67;43.45;102192.16;5062092;28;45154;-65
2022/04/29 03:20:45;;;;;;;;;33.00;30.00;;;;;16.62;43.78;102194.16;5065979;28;45312;-65
2022/04/29 03:23:11;;;;;;;;;27.00;25.75;;;;;16.61;43.83;102189.69;5079237;28;45228;-65
2022/04/29 03:25:37;;;;;;;;;30.50;29.50;;;;;16.57;44.22;102185.34;5063397;28;45400;-65
2022/04/29 03:28:05;;;;;;;;;36.75;31.25;;;;;16.53;43.83;102172.88;5071821;28;45437;-65
2022/04/29 03:30:30;;;;;;;;;33.75;32.00;;;;;16.58;43.77;102179.00;5068156;28;47108;-65
2022/04/29 03:32:58;;;;;;;;;35.50;30.25;;;;;16.58;43.81;102180.81;5061839;28;45348;-65
2022/04/29 03:35:25;;;;;;;;;30.25;28.75;;;;;16.56;43.82;102186.25;5061606;28;45268;-65
2022/04/29 03:37:52;;;;;;;;;32.75;31.00;;;;;16.49;43.87;102173.94;5071758;28;45232;-65
2022/04/29 03:40:22;;;;;;;;;31.50;29.50;;;;;16.47;43.83;102171.28;5080652;28;46573;-65
2022/04/29 03:42:49;;;;;;;;;33.25;29.25;;;;;16.42;44.01;102157.09;5073972;28;45393;-65
2022/04/29 03:45:15;;;;;;;;;38.25;32.75;;;;;16.44;43.89;102176.78;5061155;28;45335;-65
2022/04/29 03:47:41;;;;;;;;;31.75;29.75;;;;;16.41;44.11;102162.53;5062620;28;45261;-65
2022/04/29 03:50:07;;;;;;;;;36.25;32.50;;;;;16.37;44.12;102159.06;5067561;28;46391;-65
2022/04/29 03:52:32;;;;;;;;;35.25;31.50;;;;;16.39;44.09;102154.50;5068538;28;45224;-65
2022/04/29 03:54:58;;;;;;;;;32.25;30.00;;;;;16.32;44.33;102135.91;5061499;28;45246;-65
2022/04/29 03:57:23;;;;;;;;;25.75;24.75;;;;;16.40;44.32;102150.00;5061386;28;45581;-65
2022/04/29 03:59:49;;;;;;;;;28.25;23.75;;;;;16.39;44.12;102149.13;5063353;28;45744;-65
2022/04/29 04:02:14;;;;;;;;;35.25;29.50;;;;;16.32;44.28;102147.53;5074910;28;45418;-65
2022/04/29 04:04:40;;;;;;;;;31.75;29.75;;;;;16.27;44.25;102136.94;5072670;28;45479;-65
2022/04/29 04:07:06;;;;;;;;;34.75;32.00;;;;;16.20;44.10;102143.47;5075286;28;45438;-65
2022/04/29 04:09:31;;;;;;;;;32.50;30.25;;;;;16.19;44.52;102138.13;5070363;28;45329;-65
2022/04/29 04:11:56;;;;;;;;;40.00;33.50;;;;;16.22;44.24;102146.09;5060907;28;45252;-65
2022/04/29 04:14:22;;;;;;;;;31.00;28.25;;;;;16.18;44.44;102142.63;5061084;28;45370;-65
2022/04/29 04:16:48;;;;;;;;;32.25;30.25;;;;;16.16;44.36;102141.81;5061704;28;45307;-65
2022/04/29 04:19:13;;;;;;;;;37.25;31.00;;;;;16.09;44.54;102138.44;5073159;28;45415;-65
2022/04/29 04:21:39;;;;;;;;;33.25;31.75;;;;;16.12;44.66;102145.53;5060560;28;45462;-65
2022/04/29 04:24:06;;;;;;;;;33.50;32.00;;;;;16.07;44.32;102134.94;5069433;28;45394;-65
2022/04/29 04:26:32;;;;;;;;;29.50;27.75;;;;;16.09;44.69;102141.13;5065635;28;45237;-65
2022/04/29 04:28:58;;;;;;;;;33.50;29.50;;;;;16.11;44.39;102147.34;5062996;28;46839;-65
2022/04/29 04:31:24;;;;;;;;;34.00;31.25;;;;;16.04;44.64;102144.94;5067580;28;45682;-65
2022/04/29 04:33:52;;;;;;;;;32.00;27.75;;;;;16.08;44.51;102150.13;5080959;28;45395;-65
2022/04/29 04:36:17;;;;;;;;;38.50;32.50;;;;;16.09;44.61;102149.22;5080716;28;45408;-65
2022/04/29 04:38:44;;;;;;;;;36.00;32.50;;;;;16.13;44.59;102155.38;5076093;28;46205;-65
2022/04/29 04:41:10;;;;;;;;;32.00;29.00;;;;;16.11;44.71;102151.88;5059610;28;45499;-65
2022/04/29 04:43:35;;;;;;;;;29.25;29.25;;;;;16.05;44.63;102141.28;5060613;28;45453;-65
2022/04/29 04:46:01;;;;;;;;;32.00;27.25;;;;;16.04;44.60;102151.19;5060283;28;45307;-65
2022/04/29 04:48:27;;;;;;;;;33.50;30.75;;;;;16.09;44.66;102154.59;5059069;28;46081;-65
2022/04/29 04:50:53;;;;;;;;;37.50;30.75;;;;;16.06;44.70;102152.00;5066471;28;45309;-65
2022/04/29 04:53:19;;;;;;;;;33.75;30.50;;;;;16.09;44.58;102162.69;5080768;27;45382;-65
2022/04/29 04:55:44;;;;;;;;;31.75;30.75;;;;;16.11;44.67;102162.63;5073983;28;45516;-65
2022/04/29 04:58:09;;;;;;;;;28.50;27.00;;;;;16.06;44.50;102159.22;5071955;28;45414;-65
2022/04/29 05:00:36;;;;;;;;;31.00;28.50;;;;;16.01;44.80;102150.41;5060935;28;45433;-65
2022/04/29 05:03:01;;;;;;;;;36.50;32.50;;;;;15.99;44.65;102168.41;5061402;28;45320;-65
2022/04/29 05:05:27;;;;;;;;;35.25;32.50;;;;;15.93;44.67;102167.69;5063236;28;45520;-65
2022/04/29 05:07:52;;;;;;;;;31.00;29.75;;;;;15.87;44.95;102161.59;5072114;28;46274;-65
2022/04/29 05:10:18;;;;;;;;;32.50;30.25;;;;;15.89;44.90;102171.41;5063779;28;45398;-65
2022/04/29 05:12:46;;;;;;;;;29.50;27.50;;;;;15.91;44.90;102165.97;5060417;28;45231;-65
2022/04/29 05:15:14;;;;;;;;;36.25;32.50;;;;;15.93;45.09;102172.19;5059412;28;45367;-65
2022/04/29 05:17:40;;;;;;;;;34.75;30.25;;;;;15.93;44.92;102166.81;5069492;28;45473;-65
2022/04/29 05:20:07;;;;;;;;;37.00;30.50;;;;;15.97;44.94;102183.75;5073497;28;45346;-65
2022/04/29 05:22:32;;;;;;;;;32.50;30.75;;;;;15.91;44.90;102171.38;5068295;28;45379;-65
2022/04/29 05:24:58;;;;;;;;;35.00;31.50;;;;;15.95;45.12;102175.72;5068493;28;45453;-65
2022/04/29 05:27:24;;;;;;;;;32.25;29.50;;;;;15.95;44.98;102178.41;5064517;28;46115;-65
2022/04/29 05:29:50;;;;;;;;;32.75;31.25;;;;;15.97;44.98;102167.59;5065080;28;45479;-65
2022/04/29 05:32:18;;;;;;;;;32.50;29.50;;;;;15.96;45.07;102182.00;5077067;28;45366;-65
2022/04/29 05:34:45;;;;;;;;;29.75;27.75;;;;;15.89;44.92;102167.84;5077216;28;45918;-65
2022/04/29 05:37:11;;;;;;;;;30.50;28.75;;;;;15.95;44.77;102185.59;5077360;28;45309;-65
2022/04/29 05:42:23;;;;;;;;;33.25;30.50;;;;;15.92;44.85;102191.97;5059877;28;45377;-65
2022/04/29 05:44:48;;;;;;;;;33.50;30.00;;;;;15.81;45.01;102178.84;5077078;28;45565;-65
2022/04/29 05:47:14;;;;;;;;;33.75;30.00;;;;;15.85;44.85;102185.88;5078895;28;46297;-79
2022/04/29 05:49:39;;;;;;;;;31.00;28.00;;;;;15.90;44.80;102193.81;5067027;28;45299;-75
2022/04/29 05:52:06;;;;;;;;;31.75;29.25;;;;;15.94;44.77;102198.19;5074376;28;45219;-75
2022/04/29 05:54:32;;;;;;;;;32.50;28.50;;;;;15.93;44.77;102191.03;5069510;27;45227;-78
2022/04/29 05:57:02;;;;;;;;;32.00;29.75;;;;;15.83;45.10;102179.66;5072910;28;46041;-79
2022/04/29 05:59:28;;;;;;;;;37.75;31.75;;;;;15.92;45.00;102195.56;5062979;28;45322;-76
2022/04/29 06:01:54;;;;;;;;;30.50;26.75;;;;;15.92;44.90;102202.72;5063389;28;45307;-77
2022/04/29 06:04:20;;;;;;;;;32.50;26.25;;;;;15.91;44.93;102199.16;5067690;28;45381;-75
2022/04/29 06:06:45;;;;;;;;;32.50;30.50;;;;;15.96;44.96;102211.63;5066217;28;45203;-75
2022/04/29 06:09:10;;;;;;;;;31.25;26.00;;;;;15.96;44.90;102209.81;5071297;28;45436;-76
2022/04/29 06:11:36;;;;;;;;;32.00;28.75;;;;;15.96;44.86;102212.50;5063208;28;45459;-79
2022/04/29 06:14:01;;;;;;;;;27.75;27.75;;;;;15.96;44.98;102214.31;5078498;28;45506;-78
2022/04/29 06:16:27;;;;;;;;;26.50;26.00;;;;;15.99;44.87;102219.56;5063890;28;45292;-77
2022/04/29 06:18:52;;;;;;;;;33.50;30.00;;;;;15.97;45.02;102213.38;5080201;28;45350;-77
2022/04/29 06:21:18;;;;;;;;;31.00;25.00;;;;;15.89;44.99;102214.50;5082816;28;45414;-77
2022/04/29 06:23:48;;;;;;;;;32.00;28.75;;;;;15.88;44.93;102217.22;5062837;28;45535;-79
2022/04/29 06:26:14;;;;;;;;;29.50;28.25;;;;;15.87;44.82;102219.06;5061198;28;48082;-81
2022/04/29 06:28:39;;;;;;;;;27.00;25.75;;;;;15.90;44.96;102220.75;5062878;28;45238;-79
2022/04/29 06:31:05;;;;;;;;;32.25;27.50;;;;;15.91;45.10;102225.22;5081175;27;45337;-80
2022/04/29 06:33:33;;;;;;;;;34.25;30.50;;;;;15.86;45.19;102222.66;5079771;28;45381;-82
2022/04/29 06:35:58;;;;;;;;;29.75;29.00;;;;;15.89;44.91;102214.50;5061986;28;47032;-81
2022/04/29 06:38:24;;;;;;;;;32.75;30.50;;;;;15.95;45.04;102220.63;5074929;28;45476;-78
2022/04/29 06:40:50;;;;;;;;;34.25;30.25;;;;;15.95;45.13;102218.78;5073527;28;45402;-79
2022/04/29 06:43:16;;;;;;;;;28.75;26.00;;;;;15.92;44.92;102219.78;5076921;28;45442;-78
2022/04/29 06:45:42;;;;;;;;;29.25;28.50;;;;;15.84;45.23;102219.16;5071826;28;47384;-77
2022/04/29 06:48:08;;;;;;;;;35.25;32.00;;;;;15.82;44.81;102226.41;5067537;28;45541;-75
2022/04/29 06:50:33;;;;;;;;;30.75;29.75;;;;;15.74;44.98;102231.97;5067474;28;45308;-75
2022/04/29 06:52:59;;;;;;;;;31.75;29.75;;;;;15.68;44.99;102224.06;5066799;28;45305;-74
2022/04/29 06:55:24;;;;;;;;;25.50;24.50;;;;;15.74;45.22;102226.59;5068181;28;46279;-76
2022/04/29 06:57:49;;;;;;;;;31.00;30.00;;;;;15.74;45.36;102233.78;5070582;28;45500;-77
2022/04/29 07:00:15;;;;;;;;;27.75;26.50;;;;;15.69;45.31;102225.84;5064000;28;45454;-79
2022/04/29 07:02:41;;;;;;;;;36.00;30.25;;;;;15.76;45.66;102229.25;5072391;28;45528;-78
2022/04/29 07:05:07;;;;;;;;;34.00;30.00;;;;;15.80;45.61;102227.34;5067386;28;45499;-79
2022/04/29 07:07:33;;;;;;;;;33.75;28.75;;;;;15.78;45.41;102221.16;5067845;28;45260;-75
2022/04/29 07:09:58;;;;;;;;;30.50;27.75;;;;;15.86;45.49;102229.88;5069482;28;45204;-66
2022/04/29 07:12:24;;;;;;;;;31.50;25.00;;;;;15.87;45.53;102221.75;5071953;27;45409;-66
2022/04/29 07:14:53;;;;;;;;;36.00;31.00;;;;;15.92;45.72;102221.56;5066783;28;45341;-66
2022/04/29 07:17:20;;;;;;;;;33.00;29.00;;;;;15.95;45.78;102226.00;5064746;28;45327;-66
2022/04/29 07:19:46;;;;;;;;;28.50;28.00;;;;;15.96;45.84;102233.16;5061840;27;45402;-66
2022/04/29 07:22:11;;;;;;;;;35.25;32.00;;;;;15.98;45.83;102223.22;5069698;28;45446;-66
2022/04/29 07:24:37;;;;;;;;;35.75;31.75;;;;;16.03;45.56;102229.34;5060391;28;46091;-66
2022/04/29 07:27:02;;;;;;;;;35.50;32.25;;;;;16.03;45.67;102229.34;5061080;28;45243;-66
2022/04/29 07:29:28;;;;;;;;;33.75;28.75;;;;;16.05;45.52;102246.31;5067419;28;45320;-66
2022/04/29 07:31:53;;;;;;;;;40.75;32.75;;;;;15.99;45.58;102244.72;5068226;27;45819;-66
2022/04/29 07:34:19;;;;;;;;;43.00;32.25;;;;;15.98;45.58;102234.88;5073092;28;46244;-66
2022/04/29 07:42:12;;;;;;;;;38.75;34.00;;;;;15.97;45.74;102227.72;5080159;28;45303;-66
2022/04/29 07:44:37;;;;;;;;;40.50;35.25;;;;;16.02;45.70;102243.72;5059848;28;46254;-66
2022/04/29 07:47:03;;;;;;;;;35.00;30.50;;;;;16.07;45.75;102249.84;5069315;28;45474;-66
2022/04/29 07:49:28;;;;;;;;;37.75;33.00;;;;;16.08;45.81;102251.63;5070026;28;45347;-66
2022/04/29 07:51:54;;;;;;;;;37.00;32.00;;;;;16.04;45.87;102241.88;5062704;27;45557;-66
2022/04/29 07:54:19;;;;;;;;;37.50;32.50;;;;;16.07;45.85;102239.06;5078945;27;46195;-66
2022/04/29 07:56:45;;;;;;;;;40.00;34.50;;;;;16.10;45.66;102247.06;5075516;27;45826;-65
2022/04/29 07:59:10;;;;;;;;;45.00;34.50;;;;;16.09;45.98;102239.94;5071482;28;45781;-80
2022/04/29 08:01:37;;;;;;;;;36.00;32.50;;;;;16.13;45.78;102251.47;5074028;28;45538;-75
2022/04/29 08:04:02;;;;;;;;;39.25;34.00;;;;;16.07;45.69;102242.66;5069328;28;46211;-75
2022/04/29 08:06:28;;;;;;;;;41.75;35.00;;;;;16.10;45.78;102245.28;5066744;28;45381;-75
2022/04/29 08:08:53;;;;;;;;;37.25;32.25;;;;;16.10;45.95;102247.06;5061094;28;45295;-74
2022/04/29 08:11:19;;;;;;;;;47.00;37.75;;;;;16.09;46.00;102253.41;5063182;27;45582;-75
2022/04/29 08:13:45;;;;;;;;;39.75;35.75;;;;;16.04;46.16;102241.88;5074669;28;45504;-75
2022/04/29 08:16:11;;;;;;;;;41.25;36.25;;;;;15.96;46.25;102243.94;5080129;28;45153;-75
2022/04/29 08:18:37;;;;;;;;;42.00;35.25;;;;;15.89;46.19;102244.13;5079155;28;45385;-75
2022/04/29 08:21:03;;;;;;;;;37.25;33.00;;;;;15.94;46.47;102243.97;5076942;28;45352;-75
2022/04/29 08:23:28;;;;;;;;;40.50;33.75;;;;;15.93;46.41;102231.44;5070629;27;45421;-74
2022/04/29 08:25:54;;;;;;;;;46.00;35.75;;;;;15.92;46.51;102249.41;5076742;28;45437;-85
2022/04/29 08:28:19;;;;;;;;;43.50;36.00;;;;;15.98;46.64;102251.03;5062211;28;45405;-64
2022/04/29 08:30:45;;;;;;;;;37.25;32.50;;;;;15.98;46.66;102240.25;5070779;28;45381;-78
2022/04/29 08:33:12;;;;;;;;;44.00;37.75;;;;;16.00;46.53;102245.59;5065509;28;45558;-78
2022/04/29 08:35:39;;;;;;;;;41.75;35.00;;;;;15.97;46.52;102253.75;5067871;28;45295;-74
2022/04/29 08:38:08;;;;;;;;;45.00;36.75;;;;;15.95;46.41;102258.31;5074260;28;45421;-66
2022/04/29 08:40:34;;;;;;;;;42.50;35.50;;;;;15.90;46.69;102253.97;5075607;28;45456;-66
2022/04/29 08:43:04;;;;;;;;;45.75;37.00;;;;;15.90;47.10;102253.97;5061440;28;45454;-74
2022/04/29 08:45:29;;;;;;;;;34.50;31.50;;;;;15.93;47.10;102256.53;5066256;28;45622;-69
2022/04/29 08:47:55;;;;;;;;;45.00;35.50;;;;;15.98;46.83;102266.31;5075139;28;45362;-68
2022/04/29 08:50:21;;;;;;;;;44.50;36.75;;;;;15.99;47.30;102265.34;5059190;28;45749;-68
2022/04/29 08:52:48;;;;;;;;;43.25;36.50;;;;;15.97;47.37;102249.28;5059053;28;46256;-68
2022/04/29 09:00:44;;;;;;;;;37.75;33.50;;;;;16.20;46.95;102263.81;5058341;28;45394;-68
2022/04/29 09:03:15;;;;;;;;;47.25;38.50;;;;;16.24;47.27;102265.50;5062422;28;45467;-68
2022/04/29 09:05:41;;;;;;;;;46.25;38.50;;;;;16.30;47.10;102265.28;5072015;27;45643;-68
2022/04/29 09:08:07;;;;;;;;;45.75;37.25;;;;;16.33;46.96;102259.78;5065575;28;45523;-68
2022/04/29 09:10:35;;;;;;;;;48.75;38.25;;;;;16.36;46.61;102256.13;5066186;28;45628;-68
2022/04/29 09:13:13;;;;;;;;;41.25;35.00;;;;;16.32;46.79;102258.03;5072620;28;45504;-68
2022/04/29 09:15:51;;;;;;;;;46.00;39.50;;;;;16.38;46.89;102254.25;5060834;28;45557;-68
2022/04/29 09:18:35;;;;;;;;;49.00;40.50;;;;;16.37;46.98;102252.50;5064395;28;45386;-67
2022/04/29 09:21:11;;;;;;;;;47.50;38.75;;;;;16.36;47.20;102254.31;5073377;28;45630;-68
2022/04/29 09:23:42;;;;;;;;;50.50;40.25;;;;;16.39;47.52;102256.00;5065901;28;46409;-68
2022/04/29 09:26:19;;;;;;;;;45.75;38.25;;;;;16.40;47.00;102252.41;5067591;27;45669;-68
2022/04/29 09:28:46;;;;;;;;;46.50;39.50;;;;;16.42;47.34;102250.53;5063192;28;45615;-68
2022/04/29 09:31:11;;;;;;;;;51.50;40.50;;;;;16.42;47.10;102248.72;5075664;28;45355;-68
2022/04/29 09:33:37;;;;;;;;;48.25;40.00;;;;;16.44;47.04;102244.16;5064629;28;45223;-68
2022/04/29 09:36:03;;;;;;;;;50.25;41.25;;;;;16.54;46.82;102250.13;5058309;28;45861;-68
2022/04/29 09:41:23;;;;;;;;;43.75;35.25;;;;;16.62;47.09;102236.38;5070468;28;45415;-69
2022/04/29 09:43:49;;;;;;;;;45.75;38.25;;;;;16.68;47.35;102242.44;5062474;28;45322;-67
2022/04/29 09:46:23;;;;;;;;;45.00;36.25;;;;;16.76;46.85;102244.91;5065829;28;45722;-68
2022/04/29 09:48:55;;;;;;;;;42.75;37.25;;;;;16.81;47.01;102248.31;5058623;28;45407;-64
2022/04/29 09:51:43;;;;;;;;;43.50;37.25;;;;;16.87;46.89;102239.16;5069699;28;45892;-64
2022/04/29 09:54:22;;;;;;;;;46.50;38.00;;;;;16.90;46.80;102233.66;5061412;28;46897;-64
2022/04/29 09:57:04;;;;;;;;;47.75;39.50;;;;;16.93;46.51;102233.53;5061947;28;45800;-64
2022/04/29 09:59:35;;;;;;;;;47.25;38.25;;;;;16.98;46.79;102225.28;5072221;28;45513;-64
2022/04/29 10:02:01;;;;;;;;;44.00;37.00;;;;;17.01;46.31;102231.47;5073130;27;45466;-64
2022/04/29 10:04:34;;;;;;;;;48.00;38.25;;;;;17.00;46.34;102232.38;5065061;28;47316;-64
2022/04/29 10:07:03;;;;;;;;;46.25;38.00;;;;;16.98;46.07;102228.00;5063640;28;45834;-64
2022/04/29 10:09:31;;;;;;;;;49.25;40.25;;;;;17.01;46.82;102228.75;5062023;27;45960;-64
2022/04/29 10:11:59;;;;;;;;;47.75;39.75;;;;;17.06;46.74;102231.31;5065001;28;45457;-64
2022/04/29 10:14:28;;;;;;;;;45.50;38.50;;;;;17.12;46.67;102220.25;5062990;27;46957;-65
2022/04/29 10:22:33;;;;;;;;;45.25;38.00;;;;;17.33;46.14;102229.41;5063438;28;45318;-65
2022/04/29 10:24:59;;;;;;;;;43.00;37.00;;;;;17.37;46.01;102225.66;5056970;28;47002;-65
2022/04/29 10:27:26;;;;;;;;;47.50;39.25;;;;;17.33;46.38;102213.22;5064443;28;45842;-65
2022/04/29 10:29:52;;;;;;;;;47.75;40.00;;;;;17.48;46.03;102229.78;5063248;28;45413;-65
2022/04/29 10:32:17;;;;;;;;;36.00;33.50;;;;;17.50;45.79;102225.19;5069405;28;45453;-65
2022/04/29 10:34:43;;;;;;;;;48.75;38.75;;;;;17.51;45.49;102227.84;5071818;28;46084;-65
2022/04/29 10:37:13;;;;;;;;;48.00;40.75;;;;;17.53;46.11;102231.34;5061569;28;45400;-65
2022/04/29 10:39:40;;;;;;;;;43.75;37.00;;;;;17.52;45.25;102221.47;5073980;28;45308;-65
2022/04/29 10:42:10;;;;;;;;;45.75;37.50;;;;;17.64;45.57;102232.75;5068183;28;45511;-65
2022/04/29 10:45:00;;;;;;;;;42.75;36.00;;;;;17.69;45.72;102226.25;5076840;28;45268;-65
2022/04/29 10:47:42;;;;;;;;;37.75;34.50;;;;;17.75;45.03;102226.00;5080363;28;45418;-65
2022/04/29 10:50:29;;;;;;;;;41.50;36.25;;;;;17.85;45.12;102225.66;5080792;28;45531;-65
2022/04/29 10:53:05;;;;;;;;;47.00;39.50;;;;;17.88;45.19;102225.56;5079084;28;45769;-65
2022/04/29 10:55:31;;;;;;;;;43.50;36.75;;;;;17.90;45.09;102219.16;5080428;28;46145;-65
2022/04/29 10:58:01;;;;;;;;;43.00;38.00;;;;;17.91;45.18;102222.75;5076672;28;45902;-65
2022/04/29 11:00:28;;;;;;;;;42.75;35.25;;;;;17.91;45.24;102211.94;5064265;28;45256;-65
2022/04/29 11:02:53;;;;;;;;;46.25;38.75;;;;;17.99;44.82;102217.03;5064113;28;45350;-65
2022/04/29 11:05:36;;;;;;;;;41.75;35.50;;;;;18.03;45.23;102219.53;5065270;28;46261;-65
2022/04/29 11:08:11;;;;;;;;;41.50;34.75;;;;;18.05;44.56;102214.97;5059909;28;45819;-65
2022/04/29 11:10:56;;;;;;;;;45.00;38.75;;;;;18.15;44.76;102216.34;5060531;28;45366;-66
2022/04/29 11:13:23;;;;;;;;;48.25;38.00;;;;;18.13;44.33;102212.81;5060153;28;45603;-65
2022/04/29 11:15:49;;;;;;;;;43.50;38.00;;;;;18.19;44.74;102213.50;5073550;28;47079;-65
2022/04/29 11:18:32;;;;;;;;;40.00;36.25;;;;;18.25;44.97;102205.16;5065183;28;45444;-66
2022/04/29 11:20:59;;;;;;;;;43.00;37.75;;;;;18.35;44.78;102214.66;5077212;28;45294;-65
2022/04/29 11:26:14;;;;;;;;;48.00;38.00;;;;;18.48;44.92;102205.06;5066389;28;45369;-65
2022/04/29 11:28:41;;;;;;;;;50.25;42.25;;;;;18.50;44.00;102197.78;5065046;28;45380;-66
2022/04/29 11:31:08;;;;;;;;;40.00;36.00;;;;;18.51;44.43;102188.72;5075623;28;45540;-66
2022/04/29 11:33:35;;;;;;;;;41.50;35.75;;;;;18.55;44.36;102200.28;5066638;28;45280;-66